LTFM METAR and TAF | Updated Today

LTFM METAR

Istanbul Airport

Observation time: 39 min. ago

LTFM 200620Z 10007KT 060V120 CAVOK 16/04 Q1027 NOSIG RMK RWY17L 11008KT RWY34L 09008KT 060V120 RWY16R 10007KT RWY36 12008KT 080V150 RWY18 11008KT

Need help? Read our tutorial on how to read METARs or read the parsed version below.

Istanbul Airport (LTFM) METAR

  • Weather conditions on Fri, 20 May 2022 06:20:00 +0000 (39 min. ago):
  • Present conditions: Dry
  • Clouds: Clear skies
  • Visibility: Greater than 10 km
  • Wind: 100 degrees at 7 knots
  • Temperature: 16 celsius
  • Dew point: 4 celsius
  • Pressure: 1027 millibars
  • Remarks: RWY17L 11008KT RWY34L 09008KT 060V120 RWY16R 10007KT RWY36 12008KT 080V150 RWY18 11008KT


Useful to know...

LTFM TAF

Istanbul Airport

TAF LTFM 200440Z 2006/2112 05010KT CAVOK BECMG 2016/2019 14008KT BECMG 2104/2107 05010KT
Observation time: 2:19 hr. ago
Need help? Read our tutorial on how to read TAFs or read the parsed version below.

Parsed version of TAF for Istanbul Airport (LTFM)

  • From 20 May at 06:00 UTC, to day 21 of the month at 12:00 UTC
  • Visibility: Greater than 10 km
  • Wind: 50 degrees at 10
  • Expected to arise soon, from 20 May at 16:00 UTC, to day 20 of the month at 19:00 UTC
  • Wind: 140 degrees at 8
  • Expected to arise soon, from 21 May at 04:00 UTC, to day 21 of the month at 07:00 UTC
  • Wind: 50 degrees at 10